Time;durP1;ratioP1;P1;durP2;ratioP2;P2;SDS_P1;SDS_P2;PMS_P1;PMS_P2;Temp;Humidity;BMP_temperature;BMP_pressure;BME280_temperature;BME280_humidity;BME280_pressure;Samples;Min_cycle;Max_cycle;Signal;HPM_P1;HPM_P2
2023/04/10 00:01:04;;;;;;;8.73;4.50;;;;;;;10.93;55.14;99042.00;5108564;28;20028;-48
2023/04/10 00:03:30;;;;;;;11.02;5.32;;;;;;;11.06;54.63;99046.50;5093157;28;20723;-48
2023/04/10 00:05:56;;;;;;;12.13;5.28;;;;;;;11.07;54.42;99061.28;5108524;28;20020;-48
2023/04/10 00:08:23;;;;;;;5.20;3.80;;;;;;;11.35;54.15;99048.06;5091510;28;20050;-48
2023/04/10 00:10:48;;;;;;;10.10;4.75;;;;;;;11.50;53.62;99042.66;5108389;28;20034;-49
2023/04/10 00:13:15;;;;;;;9.65;5.07;;;;;;;11.46;54.44;99038.78;5108328;28;20103;-48
2023/04/10 00:15:41;;;;;;;10.48;4.70;;;;;;;11.31;55.57;99044.22;5108367;28;20020;-48
2023/04/10 00:18:07;;;;;;;8.13;4.25;;;;;;;11.12;56.40;99037.84;5092687;28;20028;-49
2023/04/10 00:20:32;;;;;;;10.43;4.85;;;;;;;11.14;56.94;99037.66;5092649;28;20397;-48
2023/04/10 00:22:58;;;;;;;12.77;4.97;;;;;;;11.31;55.18;99036.31;5092612;28;20104;-48
2023/04/10 00:25:25;;;;;;;9.27;5.05;;;;;;;11.34;54.24;99035.13;5108123;28;20064;-48
2023/04/10 00:27:52;;;;;;;11.45;6.93;;;;;;;11.23;53.98;99028.63;5108024;28;20063;-49
2023/04/10 00:30:18;;;;;;;15.85;8.00;;;;;;;11.15;54.32;99031.41;5092673;28;20463;-48
2023/04/10 00:32:44;;;;;;;18.90;11.23;;;;;;;11.10;54.65;99037.22;5108068;28;20032;-48
2023/04/10 00:35:09;;;;;;;16.88;6.93;;;;;;;10.96;55.61;99030.28;5090979;28;20062;-48
2023/04/10 00:37:36;;;;;;;16.08;6.57;;;;;;;10.98;55.34;99030.91;5107932;28;20088;-48
2023/04/10 00:40:03;;;;;;;11.40;5.85;;;;;;;10.97;55.36;99032.75;5090941;28;20406;-49
2023/04/10 00:42:29;;;;;;;12.18;6.53;;;;;;;10.97;55.33;99040.63;5092204;28;20031;-48
2023/04/10 00:44:54;;;;;;;10.15;5.43;;;;;;;10.93;55.38;99039.38;5092352;28;20024;-48
2023/04/10 00:47:21;;;;;;;7.82;5.43;;;;;;;10.76;55.37;99035.44;5107846;28;20115;-48
2023/04/10 00:49:47;;;;;;;10.32;5.47;;;;;;;10.65;55.77;99042.03;5092372;28;20447;-48
2023/04/10 00:52:12;;;;;;;9.77;6.03;;;;;;;10.49;55.78;99044.97;5074009;28;20032;-49
2023/04/10 00:54:39;;;;;;;7.05;5.57;;;;;;;10.27;56.42;99041.53;5092004;28;20031;-48
2023/04/10 00:57:05;;;;;;;10.80;5.65;;;;;;;10.13;57.06;99041.41;5092050;28;20028;-50
2023/04/10 00:59:30;;;;;;;10.15;6.40;;;;;;;9.96;57.78;99043.47;5090682;28;20516;-49
2023/04/10 01:01:57;;;;;;;8.80;5.72;;;;;;;9.87;57.97;99052.44;5092043;28;20031;-48
2023/04/10 01:04:25;;;;;;;16.80;6.35;;;;;;;9.75;58.90;99043.47;5090631;28;20035;-48
2023/04/10 01:07:17;;;;;;;8.77;6.03;;;;;;;9.88;58.62;99040.97;5091904;28;20035;-48
2023/04/10 01:09:46;;;;;;;12.88;6.60;;;;;;;10.01;58.26;99032.41;5092241;28;20055;-48
2023/04/10 01:12:33;;;;;;;11.43;5.43;;;;;;;10.15;58.28;99036.78;5091875;28;20024;-48
2023/04/10 01:15:07;;;;;;;9.27;5.00;;;;;;;10.28;57.36;99022.16;5091851;28;20400;-48
2023/04/10 01:17:59;;;;;;;8.32;5.13;;;;;;;10.35;56.77;99023.06;5091808;28;20111;-49
2023/04/10 01:20:30;;;;;;;10.85;5.10;;;;;;;10.46;56.05;99024.34;5090823;28;20034;-49
2023/04/10 01:23:34;;;;;;;16.60;5.03;;;;;;;10.51;55.99;99016.72;5091831;28;20024;-49
2023/04/10 01:26:06;;;;;;;8.02;3.95;;;;;;;10.60;55.70;99010.28;5091756;28;20039;-48
2023/04/10 01:28:55;;;;;;;14.90;5.85;;;;;;;10.66;55.71;99013.97;5091571;28;20056;-48
2023/04/10 01:31:32;;;;;;;8.20;5.20;;;;;;;10.70;55.72;99013.38;5107319;28;20432;-48
2023/04/10 01:34:02;;;;;;;15.55;5.60;;;;;;;10.66;55.70;99014.78;5091652;28;20478;-49
2023/04/10 01:36:35;;;;;;;5.18;4.65;;;;;;;10.57;55.83;99008.06;5090368;28;20031;-48
2023/04/10 01:39:02;;;;;;;8.65;4.63;;;;;;;10.68;55.35;99007.50;5091752;28;20035;-49
2023/04/10 01:41:30;;;;;;;7.07;4.47;;;;;;;10.64;55.52;99008.91;5091500;28;20442;-49
2023/04/10 01:43:58;;;;;;;13.55;5.68;;;;;;;10.58;55.42;99009.69;5091594;28;20027;-48
2023/04/10 01:46:25;;;;;;;14.05;5.65;;;;;;;10.48;56.17;99023.13;5107106;28;20115;-48
2023/04/10 01:48:52;;;;;;;7.93;4.70;;;;;;;10.56;55.52;99017.75;5107192;28;20039;-48
2023/04/10 01:51:19;;;;;;;8.15;5.03;;;;;;;10.42;55.67;99018.66;5107173;28;20030;-48
2023/04/10 01:53:46;;;;;;;15.63;5.72;;;;;;;10.19;56.49;99011.00;5107075;28;20421;-48
2023/04/10 01:56:12;;;;;;;10.95;5.10;;;;;;;10.02;56.75;99015.69;5091502;28;20039;-48
2023/04/10 01:58:38;;;;;;;7.75;5.15;;;;;;;9.89;57.10;99008.50;5107110;28;20523;-48
2023/04/10 02:01:04;;;;;;;16.67;5.35;;;;;;;9.69;58.26;99015.38;5107801;28;20032;-48
2023/04/10 02:03:30;;;;;;;15.38;5.15;;;;;;;9.70;58.20;99023.06;5110923;28;20024;-48
2023/04/10 02:06:25;;;;;;;5.78;4.30;;;;;;;9.85;58.46;99012.50;5110895;28;20472;-48
2023/04/10 02:09:14;;;;;;;7.95;4.55;;;;;;;9.88;57.13;99016.56;5095247;28;20122;-48
2023/04/10 02:12:03;;;;;;;9.85;5.30;;;;;;;9.60;58.20;99020.72;5095135;28;20027;-48
2023/04/10 02:14:31;;;;;;;8.40;5.63;;;;;;;9.53;58.46;99017.22;5095032;28;20024;-48
2023/04/10 02:16:58;;;;;;;13.98;5.40;;;;;;;9.52;58.47;99025.28;5110707;28;20036;-48
2023/04/10 02:19:26;;;;;;;6.57;5.07;;;;;;;9.43;58.37;99019.31;5094992;28;20556;-48
2023/04/10 02:21:53;;;;;;;13.98;5.07;;;;;;;9.35;59.15;99025.47;5094941;28;20048;-48
2023/04/10 02:24:19;;;;;;;9.23;5.72;;;;;;;9.31;59.17;99026.03;5094995;28;20047;-48
2023/04/10 02:26:45;;;;;;;9.77;4.82;;;;;;;9.23;59.10;99034.81;5094893;28;20026;-49
2023/04/10 02:29:11;;;;;;;9.38;5.13;;;;;;;9.25;59.73;99026.78;5094594;28;20122;-48
2023/04/10 02:31:37;;;;;;;9.80;5.25;;;;;;;9.26;59.21;99038.88;5093726;28;20099;-48
2023/04/10 02:34:02;;;;;;;16.40;5.20;;;;;;;9.31;59.34;99033.91;5094647;28;20574;-48
2023/04/10 02:36:28;;;;;;;12.05;5.45;;;;;;;9.42;59.08;99030.81;5110266;28;20028;-48
2023/04/10 02:38:54;;;;;;;9.80;5.30;;;;;;;9.46;59.09;99029.44;5094547;28;20024;-48
2023/04/10 02:41:21;;;;;;;11.88;4.78;;;;;;;9.56;58.91;99035.19;5094470;28;20020;-48
2023/04/10 02:43:46;;;;;;;12.50;5.15;;;;;;;9.57;58.89;99028.94;5094450;28;20523;-48
2023/04/10 02:46:12;;;;;;;12.90;5.22;;;;;;;9.64;58.52;99025.59;5094521;28;20020;-48
2023/04/10 02:48:38;;;;;;;7.82;4.20;;;;;;;9.67;58.19;99018.19;5110144;28;20056;-48
2023/04/10 02:51:04;;;;;;;11.07;5.65;;;;;;;9.61;58.21;99029.41;5094354;28;20040;-49
2023/04/10 02:53:31;;;;;;;9.98;5.28;;;;;;;9.49;58.27;99017.78;5094549;28;20027;-48
2023/04/10 02:55:57;;;;;;;6.97;5.18;;;;;;;9.29;58.92;99023.59;5094379;28;20081;-48
2023/04/10 02:58:22;;;;;;;9.13;6.03;;;;;;;9.10;59.17;99018.94;5094193;28;20032;-48
2023/04/10 03:00:49;;;;;;;10.82;6.00;;;;;;;8.99;60.24;99026.28;5109937;28;20028;-48
2023/04/10 03:03:16;;;;;;;8.30;5.60;;;;;;;8.94;60.51;99025.19;5109826;28;20513;-48
2023/04/10 03:05:41;;;;;;;7.85;5.25;;;;;;;8.92;60.53;99022.75;5109828;28;20489;-49
2023/04/10 03:08:07;;;;;;;7.95;5.00;;;;;;;8.91;60.59;99030.78;5094123;28;20020;-48
2023/04/10 03:10:33;;;;;;;7.97;5.78;;;;;;;8.78;60.59;99021.75;5109783;28;20035;-48
2023/04/10 03:12:58;;;;;;;7.25;5.40;;;;;;;8.61;61.00;99025.50;5092870;28;20032;-48
2023/04/10 03:15:24;;;;;;;12.27;5.85;;;;;;;8.65;62.18;99026.78;5109447;28;20035;-48
2023/04/10 03:17:49;;;;;;;13.27;6.40;;;;;;;8.76;61.18;99028.97;5094008;28;20401;-49
2023/04/10 03:20:15;;;;;;;9.40;5.60;;;;;;;8.88;60.73;99028.53;5109527;28;20139;-48
2023/04/10 03:22:41;;;;;;;8.98;6.53;;;;;;;8.80;60.93;99032.84;5093805;28;20028;-48
2023/04/10 03:25:07;;;;;;;11.10;5.68;;;;;;;8.73;61.16;99026.72;5092643;28;20024;-48
2023/04/10 03:27:33;;;;;;;6.05;5.10;;;;;;;8.67;61.36;99019.59;5093516;28;20480;-48
2023/04/10 03:30:01;;;;;;;9.52;5.97;;;;;;;8.61;61.33;99028.13;5092441;28;20034;-48
2023/04/10 03:32:29;;;;;;;10.13;5.43;;;;;;;8.81;61.50;99023.19;5093676;28;20024;-48
2023/04/10 03:34:56;;;;;;;11.75;5.55;;;;;;;8.95;60.84;99017.16;5093469;28;20111;-48
2023/04/10 03:37:22;;;;;;;5.60;4.63;;;;;;;9.02;60.47;99016.44;5093782;28;20413;-48
2023/04/10 03:39:47;;;;;;;9.23;4.93;;;;;;;8.92;60.30;99017.50;5093557;28;20426;-48
2023/04/10 03:42:14;;;;;;;8.90;5.47;;;;;;;8.96;60.59;99013.53;5109073;28;20051;-48
2023/04/10 03:44:40;;;;;;;10.98;5.40;;;;;;;9.11;60.45;99020.56;5109047;28;20111;-48
2023/04/10 03:47:06;;;;;;;12.63;5.75;;;;;;;9.25;59.78;99014.50;5093385;28;20081;-49
2023/04/10 03:49:32;;;;;;;8.85;5.07;;;;;;;9.20;60.17;99016.84;5093363;28;20070;-48
2023/04/10 03:51:57;;;;;;;11.32;5.28;;;;;;;9.28;59.70;99024.59;5093244;28;20085;-48
2023/04/10 03:54:23;;;;;;;7.93;5.70;;;;;;;9.29;59.13;99013.13;5093082;28;20023;-48
2023/04/10 03:56:49;;;;;;;12.55;5.43;;;;;;;9.04;59.58;99017.88;5093136;28;20028;-48
2023/04/10 03:59:15;;;;;;;9.40;5.72;;;;;;;8.85;60.31;99015.78;5091763;28;20032;-48
2023/04/10 04:01:40;;;;;;;11.73;6.30;;;;;;;8.62;60.80;99021.13;5093016;28;20532;-48
2023/04/10 04:04:06;;;;;;;10.52;6.35;;;;;;;8.53;61.36;99013.34;5108718;28;20020;-48
2023/04/10 04:06:32;;;;;;;17.83;6.82;;;;;;;8.57;61.70;99012.00;5091743;28;20028;-48
2023/04/10 04:08:57;;;;;;;8.98;6.47;;;;;;;8.57;61.23;99017.25;5092914;28;20036;-48
2023/04/10 04:11:23;;;;;;;9.05;6.22;;;;;;;8.51;61.40;99020.56;5092866;28;20034;-48
2023/04/10 04:13:49;;;;;;;16.88;7.70;;;;;;;8.36;61.89;99019.69;5092862;28;20028;-48
2023/04/10 04:16:14;;;;;;;10.40;6.18;;;;;;;8.29;61.98;99027.44;5092777;28;20478;-48
2023/04/10 04:18:40;;;;;;;6.85;5.50;;;;;;;8.17;62.66;99023.63;5092761;28;20020;-48
2023/04/10 04:21:07;;;;;;;6.65;5.55;;;;;;;8.14;62.17;99029.19;5092845;28;20028;-48
2023/04/10 04:23:33;;;;;;;10.05;5.57;;;;;;;8.08;62.63;99030.72;5108560;28;20524;-48
2023/04/10 04:25:58;;;;;;;11.23;6.03;;;;;;;8.01;62.37;99037.63;5091358;28;20049;-48
2023/04/10 04:28:24;;;;;;;10.40;4.90;;;;;;;7.92;62.82;99033.44;5108216;28;20051;-48
2023/04/10 04:30:50;;;;;;;9.43;5.20;;;;;;;7.87;62.80;99035.75;5108254;28;20093;-48
2023/04/10 04:33:15;;;;;;;10.98;5.05;;;;;;;7.86;63.80;99036.75;5108254;28;20023;-48
2023/04/10 04:35:41;;;;;;;7.70;5.38;;;;;;;7.92;63.52;99031.63;5092441;28;20039;-48
2023/04/10 04:38:07;;;;;;;5.25;4.60;;;;;;;7.94;62.72;99039.31;5108165;28;20023;-48
2023/04/10 04:40:33;;;;;;;8.70;5.68;;;;;;;7.88;62.77;99032.16;5092337;28;20027;-47
2023/04/10 04:42:58;;;;;;;7.25;5.95;;;;;;;7.74;64.13;99037.16;5092418;28;20055;-48
2023/04/10 04:45:24;;;;;;;17.38;6.03;;;;;;;7.75;64.08;99041.41;5107903;28;20382;-48
2023/04/10 04:47:50;;;;;;;10.27;5.80;;;;;;;7.80;64.19;99033.84;5092313;28;20043;-48
2023/04/10 04:50:16;;;;;;;12.82;5.97;;;;;;;7.86;63.92;99036.75;5107943;28;20024;-48
2023/04/10 04:52:43;;;;;;;9.73;5.97;;;;;;;7.98;64.11;99036.16;5092304;28;20024;-49
2023/04/10 04:55:09;;;;;;;11.43;5.22;;;;;;;8.09;63.27;99044.59;5092083;28;20121;-48
2023/04/10 04:57:34;;;;;;;10.38;5.45;;;;;;;8.22;62.99;99039.59;5091074;28;20031;-48
2023/04/10 05:00:00;;;;;;;8.70;6.15;;;;;;;8.11;62.94;99035.59;5107799;28;20023;-48
2023/04/10 05:02:26;;;;;;;9.40;5.90;;;;;;;8.05;63.05;99031.06;5090891;28;20050;-48
2023/04/10 05:04:51;;;;;;;16.63;7.20;;;;;;;8.13;63.37;99032.78;5107819;28;20085;-48
2023/04/10 05:07:17;;;;;;;9.18;5.82;;;;;;;8.10;63.07;99036.56;5092068;28;20504;-48
2023/04/10 05:09:43;;;;;;;8.23;5.68;;;;;;;8.15;63.08;99031.63;5092063;28;20035;-48
2023/04/10 05:12:09;;;;;;;8.52;5.63;;;;;;;8.23;62.83;99041.22;5092036;28;20047;-48
2023/04/10 05:14:35;;;;;;;10.30;6.43;;;;;;;8.19;63.07;99034.72;5107646;28;20034;-48
2023/04/10 05:17:00;;;;;;;12.20;5.88;;;;;;;8.28;62.21;99036.25;5091941;28;20107;-48
2023/04/10 05:19:26;;;;;;;8.05;5.13;;;;;;;8.39;62.04;99041.06;5091951;28;20028;-48
2023/04/10 05:21:52;;;;;;;10.82;5.43;;;;;;;8.43;61.93;99041.56;5091979;28;20502;-48
2023/04/10 05:24:17;;;;;;;7.20;5.60;;;;;;;8.57;61.97;99043.41;5091848;28;20043;-48
2023/04/10 05:26:43;;;;;;;11.57;5.43;;;;;;;8.82;60.77;99037.91;5107883;28;20481;-48
2023/04/10 05:29:09;;;;;;;7.70;4.93;;;;;;;9.06;60.70;99044.69;5091676;28;20067;-48
2023/04/10 05:31:35;;;;;;;6.47;5.00;;;;;;;9.54;59.39;99039.81;5091774;28;20028;-48
2023/04/10 05:34:00;;;;;;;56.38;47.10;;;;;;;10.13;57.25;99040.59;5091678;28;20028;-48
2023/04/10 05:36:26;;;;;;;18.70;7.70;;;;;;;10.69;55.96;99029.34;5091910;28;20028;-48
2023/04/10 05:38:52;;;;;;;14.38;5.82;;;;;;;11.18;54.02;99023.13;5111492;28;20024;-48
2023/04/10 05:41:17;;;;;;;9.63;5.55;;;;;;;11.53;52.89;99020.41;5095632;28;20485;-49
2023/04/10 05:43:43;;;;;;;8.35;5.13;;;;;;;11.83;51.73;99020.06;5111350;28;20028;-48
2023/04/10 05:46:10;;;;;;;5.50;4.75;;;;;;;12.13;51.12;99017.91;5095566;28;20024;-48
2023/04/10 05:48:36;;;;;;;10.15;5.28;;;;;;;12.34;49.99;99028.25;5111240;28;20130;-48
2023/04/10 05:51:02;;;;;;;8.50;4.65;;;;;;;12.24;49.96;99032.31;5111136;28;20066;-48
2023/04/10 05:53:30;;;;;;;6.78;5.30;;;;;;;12.06;50.00;99028.44;5095404;28;20020;-48
2023/04/10 05:55:56;;;;;;;9.55;5.55;;;;;;;12.14;50.13;99033.50;5095376;28;20035;-48
2023/04/10 05:58:22;;;;;;;9.65;5.35;;;;;;;12.30;49.84;99040.19;5095376;28;20482;-48
2023/04/10 06:00:47;;;;;;;6.35;4.85;;;;;;;12.28;49.82;99039.59;5111000;28;20111;-48
2023/04/10 06:03:13;;;;;;;10.38;5.18;;;;;;;12.15;50.08;99043.03;5095261;28;20115;-48
2023/04/10 06:05:40;;;;;;;10.25;4.93;;;;;;;12.37;50.94;99048.91;5110871;28;20020;-48
2023/04/10 06:08:06;;;;;;;6.20;4.90;;;;;;;12.41;49.66;99049.28;5095224;28;20020;-48
2023/04/10 06:10:32;;;;;;;5.38;4.47;;;;;;;12.32;50.54;99047.88;5095092;28;20035;-48
2023/04/10 06:12:57;;;;;;;7.88;4.38;;;;;;;12.76;49.74;99051.72;5110813;28;20177;-49
2023/04/10 06:15:23;;;;;;;6.38;4.38;;;;;;;13.38;48.80;99058.25;5095016;28;20028;-48
2023/04/10 06:17:48;;;;;;;6.80;4.38;;;;;;;14.17;47.24;99053.53;5110717;28;20027;-48
2023/04/10 06:20:14;;;;;;;8.93;4.65;;;;;;;14.84;45.24;99057.47;5094995;28;20485;-48
2023/04/10 06:22:40;;;;;;;14.68;5.13;;;;;;;15.36;44.58;99053.41;5110594;28;20032;-48
2023/04/10 06:25:06;;;;;;;15.60;5.90;;;;;;;16.30;43.66;99046.84;5110536;28;20028;-48
2023/04/10 06:27:34;;;;;;;25.33;5.18;;;;;;;17.03;41.14;99044.78;5094654;28;20091;-46
2023/04/10 06:30:00;;;;;;;11.30;5.72;;;;;;;17.24;42.01;99048.66;5110505;28;20115;-47
2023/04/10 06:32:25;;;;;;;13.35;5.47;;;;;;;17.40;41.48;99049.75;5110415;28;20028;-46
2023/04/10 06:34:51;;;;;;;7.38;4.00;;;;;;;17.82;40.65;99054.78;5094865;28;20028;-46
2023/04/10 06:37:17;;;;;;;12.52;4.85;;;;;;;18.53;39.36;99049.84;5093369;28;20032;-46
2023/04/10 06:39:43;;;;;;;11.40;5.22;;;;;;;19.14;37.91;99044.59;5093290;28;20035;-46
2023/04/10 06:42:08;;;;;;;11.40;5.55;;;;;;;19.74;36.66;99040.25;5110156;28;20031;-47
2023/04/10 06:44:34;;;;;;;17.48;4.95;;;;;;;20.35;35.79;99027.44;5110211;28;20027;-44
2023/04/10 06:47:00;;;;;;;12.68;5.28;;;;;;;21.02;34.62;99027.03;5094279;28;20024;-44
2023/04/10 06:49:25;;;;;;;7.20;4.72;;;;;;;21.63;33.62;99035.28;5094381;28;20053;-46
2023/04/10 06:51:51;;;;;;;9.50;3.97;;;;;;;21.83;33.02;99036.34;5094401;28;20078;-44
2023/04/10 06:54:17;;;;;;;7.20;4.70;;;;;;;22.23;32.24;99032.91;5094251;28;20027;-44
2023/04/10 06:56:42;;;;;;;16.15;4.43;;;;;;;22.77;31.18;99033.38;5094255;28;20059;-44
2023/04/10 06:59:08;;;;;;;10.65;4.55;;;;;;;23.17;30.29;99027.13;5109876;28;20383;-44
2023/04/10 07:01:34;;;;;;;12.63;4.57;;;;;;;23.86;29.48;99032.63;5109843;28;20036;-45
2023/04/10 07:04:00;;;;;;;7.53;4.57;;;;;;;24.61;28.03;99032.28;5092838;28;20028;-45
2023/04/10 07:06:26;;;;;;;9.07;3.78;;;;;;;25.68;27.06;99035.53;5109744;28;20405;-45
2023/04/10 07:08:51;;;;;;;10.32;4.60;;;;;;;26.81;25.55;99036.38;5109663;28;20035;-45
2023/04/10 07:11:17;;;;;;;11.05;4.55;;;;;;;27.58;24.66;99034.00;5093983;28;20032;-45
2023/04/10 07:13:43;;;;;;;9.43;4.38;;;;;;;28.32;23.98;99024.72;5093875;28;20472;-45
2023/04/10 07:16:09;;;;;;;6.80;4.00;;;;;;;28.79;22.46;99022.38;5094103;28;20036;-45
2023/04/10 07:18:37;;;;;;;5.25;3.67;;;;;;;28.43;23.05;99024.13;5109499;28;20111;-45
2023/04/10 07:21:11;;;;;;;5.70;4.15;;;;;;;28.24;23.13;99023.56;5093731;28;20035;-45
2023/04/10 07:23:37;;;;;;;5.27;4.27;;;;;;;27.73;23.43;99024.75;5093761;28;20111;-45
2023/04/10 07:26:02;;;;;;;8.10;4.43;;;;;;;27.50;23.72;99027.44;5109362;28;20349;-45
2023/04/10 07:28:28;;;;;;;7.95;5.13;;;;;;;27.26;24.05;99033.88;5093510;28;20044;-45
2023/04/10 07:30:54;;;;;;;8.60;4.97;;;;;;;27.66;23.35;99025.97;5092250;28;20115;-45
2023/04/10 07:33:20;;;;;;;8.85;3.70;;;;;;;28.20;22.47;99023.38;5093590;28;20527;-45
2023/04/10 07:35:45;;;;;;;7.35;3.90;;;;;;;28.48;22.63;99023.19;5093687;28;20035;-45
2023/04/10 07:38:12;;;;;;;5.25;3.90;;;;;;;29.07;21.83;99022.94;5093419;28;20562;-45
2023/04/10 07:40:37;;;;;;;7.32;4.20;;;;;;;29.46;21.66;99026.69;5093606;28;20035;-45
2023/04/10 07:43:03;;;;;;;5.63;4.00;;;;;;;29.57;21.32;99030.66;5108978;28;20028;-45
2023/04/10 07:45:29;;;;;;;5.53;3.67;;;;;;;29.91;20.80;99031.78;5093285;28;20019;-45
2023/04/10 07:47:54;;;;;;;4.68;3.53;;;;;;;29.97;20.62;99027.81;5108973;28;20160;-45
2023/04/10 07:50:20;;;;;;;8.23;4.00;;;;;;;30.35;20.35;99021.69;5093150;28;20031;-45
2023/04/10 07:52:47;;;;;;;7.75;4.22;;;;;;;30.01;20.51;99025.25;5075037;28;20024;-45
2023/04/10 07:55:13;;;;;;;10.75;4.55;;;;;;;29.77;21.45;99025.75;5108754;28;20031;-45
2023/04/10 07:57:38;;;;;;;11.30;3.65;;;;;;;30.37;20.52;99024.09;5109053;28;20409;-45
2023/04/10 08:00:05;;;;;;;8.50;3.83;;;;;;;30.41;20.70;99033.16;5108105;28;20066;-45
2023/04/10 08:02:30;;;;;;;3.92;3.17;;;;;;;30.32;20.88;99033.16;5093002;28;20028;-45
2023/04/10 08:04:56;;;;;;;6.13;3.83;;;;;;;30.71;20.20;99038.59;5108575;28;20028;-45
2023/04/10 08:07:22;;;;;;;8.25;3.00;;;;;;;31.48;19.40;99033.91;5092870;28;20103;-46
2023/04/10 08:09:47;;;;;;;4.18;3.17;;;;;;;31.53;19.20;99039.13;5092794;28;20028;-45
2023/04/10 08:12:13;;;;;;;4.47;2.67;;;;;;;31.57;19.36;99040.06;5092846;28;20054;-45
2023/04/10 08:14:39;;;;;;;6.15;2.70;;;;;;;31.82;19.12;99030.09;5108348;28;20028;-45
2023/04/10 08:17:05;;;;;;;4.35;2.70;;;;;;;32.14;18.41;99035.09;5092696;28;20176;-45
2023/04/10 08:19:30;;;;;;;6.10;3.03;;;;;;;33.02;17.92;99036.44;5108347;28;20059;-45
2023/04/10 08:21:56;;;;;;;7.80;2.95;;;;;;;33.42;17.75;99034.91;5092666;28;20020;-45
2023/04/10 08:24:22;;;;;;;6.65;2.70;;;;;;;33.82;17.44;99034.13;5108343;28;20042;-45
2023/04/10 08:26:47;;;;;;;2.88;2.58;;;;;;;34.42;16.74;99034.16;5092462;28;20509;-46
2023/04/10 08:29:13;;;;;;;5.05;2.72;;;;;;;34.49;16.20;99031.63;5108036;28;20117;-45
2023/04/10 08:31:39;;;;;;;3.67;2.80;;;;;;;34.45;16.30;99036.19;5108159;28;20455;-45
2023/04/10 08:34:04;;;;;;;3.25;2.10;;;;;;;34.46;15.88;99039.69;5107971;28;20543;-45
2023/04/10 08:36:30;;;;;;;8.05;3.08;;;;;;;34.14;16.48;99043.19;5092714;28;20131;-45
2023/04/10 08:38:56;;;;;;;5.38;2.90;;;;;;;34.33;16.54;99039.78;5092419;28;20038;-45
2023/04/10 08:41:22;;;;;;;26.27;4.90;;;;;;;34.55;16.68;99040.28;5092254;28;20028;-45
2023/04/10 08:43:48;;;;;;;6.15;2.60;;;;;;;34.69;16.54;99039.88;5092239;28;20035;-46
2023/04/10 08:46:15;;;;;;;4.50;2.47;;;;;;;34.62;15.96;99041.28;5092152;28;20036;-45
2023/04/10 08:48:52;;;;;;;2.45;2.25;;;;;;;34.31;16.47;99041.25;5090896;28;20054;-45
2023/04/10 08:51:25;;;;;;;9.32;3.13;;;;;;;33.92;16.45;99049.94;5092176;28;20080;-45
2023/04/10 08:53:57;;;;;;;2.20;1.90;;;;;;;33.63;17.35;99043.72;5092102;28;20103;-45
2023/04/10 08:56:23;;;;;;;3.45;2.67;;;;;;;33.61;17.08;99050.63;5092136;28;20038;-45
2023/04/10 08:58:50;;;;;;;3.63;2.35;;;;;;;33.59;17.43;99045.53;5092070;28;20028;-45
2023/04/10 09:01:20;;;;;;;4.70;2.60;;;;;;;33.79;17.36;99048.44;5092063;28;20016;-45
2023/04/10 09:03:47;;;;;;;5.65;2.53;;;;;;;33.90;17.22;99043.28;5090751;28;20428;-45
2023/04/10 09:06:13;;;;;;;7.70;2.67;;;;;;;33.30;17.24;99032.22;5091980;28;20515;-45
2023/04/10 09:08:38;;;;;;;5.80;2.47;;;;;;;33.42;17.78;99037.63;5092013;28;20024;-45
2023/04/10 09:11:04;;;;;;;4.40;2.50;;;;;;;33.57;17.60;99031.47;5106550;28;20039;-45
2023/04/10 09:13:38;;;;;;;5.78;3.25;;;;;;;33.42;16.96;99019.41;5107522;28;20482;-46
2023/04/10 09:16:04;;;;;;;;;;;;;;;33.68;17.06;99023.63;5092268;28;20463;-46
2023/04/10 09:18:50;;;;;;;6.72;3.53;;;;;;;33.62;17.14;99014.94;5091865;28;19908;-46
2023/04/10 09:21:20;;;;;;;4.75;2.38;;;;;;;33.86;17.18;99015.94;5091805;28;20114;-46
2023/04/10 09:23:47;;;;;;;4.57;2.50;;;;;;;32.83;17.73;99017.19;5091854;28;20477;-45
2023/04/10 09:26:32;;;;;;;4.70;2.63;;;;;;;33.34;17.42;99014.06;5091805;28;20073;-46
2023/04/10 09:29:03;;;;;;;5.20;2.40;;;;;;;33.87;16.80;99014.00;5107301;28;20153;-46
2023/04/10 09:31:39;;;;;;;17.13;5.90;;;;;;;33.81;17.28;99013.50;5091777;28;20031;-46
2023/04/10 09:34:09;;;;;;;2.42;2.00;;;;;;;33.52;17.04;99012.66;5107290;28;20031;-46
2023/04/10 09:36:40;;;;;;;10.35;3.33;;;;;;;33.67;16.94;99007.66;5091649;28;20494;-46
2023/04/10 09:39:06;;;;;;;8.63;2.58;;;;;;;33.85;16.92;99019.00;5091952;28;20032;-46
2023/04/10 09:41:32;;;;;;;2.53;1.92;;;;;;;34.08;16.63;99019.25;5091591;28;20051;-46
2023/04/10 09:44:09;;;;;;;2.60;2.25;;;;;;;33.80;16.83;99017.34;5090310;28;20464;-46
2023/04/10 09:46:35;;;;;;;5.65;2.13;;;;;;;33.38;17.22;99020.41;5091830;28;20057;-48
2023/04/10 09:49:03;;;;;;;34.63;19.30;;;;;;;34.15;17.31;99017.53;5091603;28;20550;-46
2023/04/10 09:51:33;;;;;;;8.85;2.92;;;;;;;35.17;16.22;99014.13;5091479;28;20032;-46
2023/04/10 09:54:00;;;;;;;3.38;2.10;;;;;;;35.37;15.66;99009.47;5091486;28;20024;-46
2023/04/10 09:56:27;;;;;;;6.90;4.97;;;;;;;35.28;15.94;99021.78;5091540;28;20102;-46
2023/04/10 09:58:57;;;;;;;5.15;2.72;;;;;;;35.61;16.09;99002.16;5091527;28;20027;-46
2023/04/10 10:01:26;;;;;;;4.70;2.50;;;;;;;35.40;15.48;99007.97;5090493;28;20107;-45
2023/04/10 10:03:54;;;;;;;3.63;2.30;;;;;;;35.00;15.79;99012.56;5107128;28;20493;-45
2023/04/10 10:06:20;;;;;;;2.85;2.17;;;;;;;34.96;16.06;99011.69;5090313;28;20037;-46
2023/04/10 10:08:47;;;;;;;3.13;2.22;;;;;;;34.93;16.04;99006.16;5107104;28;20548;-45
2023/04/10 10:11:17;;;;;;;5.22;1.90;;;;;;;34.33;16.41;99009.00;5091316;28;20035;-45
2023/04/10 10:13:55;;;;;;;4.00;1.92;;;;;;;33.30;17.33;99008.53;5091546;28;20020;-46
2023/04/10 10:16:33;;;;;;;14.52;4.70;;;;;;;32.52;17.86;99015.00;5106978;28;20172;-46
2023/04/10 10:18:58;;;;;;;11.85;3.03;;;;;;;31.40;18.84;99011.09;5091329;28;20481;-45
2023/04/10 10:21:26;;;;;;;2.72;2.10;;;;;;;30.76;19.41;99020.25;5106952;28;20419;-45
2023/04/10 10:23:56;;;;;;;3.42;2.08;;;;;;;31.12;18.85;99010.81;5094703;28;20020;-45
2023/04/10 10:26:23;;;;;;;2.78;2.05;;;;;;;31.94;18.21;99013.06;5094802;28;20072;-46
2023/04/10 10:28:53;;;;;;;6.55;3.00;;;;;;;32.34;18.25;99001.63;5110354;28;20098;-45
2023/04/10 10:31:22;;;;;;;5.35;2.15;;;;;;;32.11;18.01;99001.25;5094844;28;20500;-45
2023/04/10 10:33:51;;;;;;;2.30;2.03;;;;;;;32.08;18.30;99003.88;5094605;28;20625;-45
2023/04/10 10:36:19;;;;;;;7.15;3.40;;;;;;;32.18;17.85;98989.84;5093363;28;20489;-46
2023/04/10 10:39:10;;;;;;;5.13;2.10;;;;;;;32.58;17.77;98991.97;5094537;28;20063;-45
2023/04/10 10:41:56;;;;;;;1.63;1.52;;;;;;;32.70;16.89;98985.69;5088357;28;20040;-45
2023/04/10 10:44:46;;;;;;;2.72;1.73;;;;;;;33.03;16.94;98983.63;5093593;28;20524;-46
2023/04/10 10:47:19;;;;;;;6.57;4.10;;;;;;;33.21;17.47;98973.31;5094505;28;20035;-46
2023/04/10 10:50:01;;;;;;;3.42;1.95;;;;;;;33.14;17.04;98980.47;5094696;28;20423;-46
2023/04/10 10:52:56;;;;;;;6.47;1.92;;;;;;;32.68;17.09;98988.78;5094652;28;20047;-46
2023/04/10 10:55:22;;;;;;;2.25;1.80;;;;;;;32.06;17.39;98987.13;5094263;28;20085;-46
2023/04/10 10:57:53;;;;;;;2.03;1.70;;;;;;;31.87;17.81;98988.38;5094199;28;20114;-46
2023/04/10 11:00:23;;;;;;;3.95;1.73;;;;;;;31.88;17.93;98998.13;5094217;28;20402;-46
2023/04/10 11:03:07;;;;;;;3.75;2.00;;;;;;;31.72;18.31;98995.22;5094120;28;20494;-45
2023/04/10 11:06:11;;;;;;;7.43;2.17;;;;;;;31.55;18.47;98992.66;5109832;28;20039;-46
2023/04/10 11:08:43;;;;;;;2.90;1.55;;;;;;;31.40;17.97;98996.75;5071355;28;20528;-45
2023/04/10 11:11:15;;;;;;;1.95;1.67;;;;;;;31.30;17.89;99002.59;5071489;28;20040;-45
2023/04/10 11:13:48;;;;;;;2.83;1.60;;;;;;;31.44;18.48;99006.63;5054615;28;20033;-46
2023/04/10 11:16:14;;;;;;;3.22;1.38;;;;;;;31.92;17.81;99009.88;5071444;28;20040;-46
2023/04/10 11:18:48;;;;;;;3.25;1.70;;;;;;;32.51;17.45;99011.50;5071437;28;20070;-45
2023/04/10 11:21:15;;;;;;;;;;;;;;;33.07;17.09;99015.59;5054985;28;20048;-45
2023/04/10 11:23:49;;;;;;;4.88;1.83;;;;;;;33.44;16.51;99010.88;5071152;28;19909;-46
2023/04/10 11:26:38;;;;;;;3.08;1.58;;;;;;;34.19;15.68;99007.50;5071259;28;20036;-46
2023/04/10 11:29:18;;;;;;;2.63;1.35;;;;;;;35.07;15.09;99005.69;5070903;28;20055;-45
2023/04/10 11:31:45;;;;;;;4.65;1.30;;;;;;;35.30;14.15;98994.91;5054363;28;20407;-46
2023/04/10 11:34:11;;;;;;;2.40;1.20;;;;;;;35.64;13.95;98986.97;5053253;28;20036;-46
2023/04/10 11:36:39;;;;;;;2.42;1.20;;;;;;;35.83;13.09;98978.78;5070962;28;20119;-48
2023/04/10 11:39:12;;;;;;;4.03;1.17;;;;;;;35.90;12.82;98980.84;5070906;28;20059;-48